Time;durP1;ratioP1;P1;durP2;ratioP2;P2;SDS_P1;SDS_P2;PMS_P1;PMS_P2;Temp;Humidity;BMP_temperature;BMP_pressure;BME280_temperature;BME280_humidity;BME280_pressure;Samples;Min_cycle;Max_cycle;Signal;HPM_P1;HPM_P2
2022/09/24 00:01:14;;;;;;;;;;;19.20;99.90;;;;;;5051949;28;19913;-75
2022/09/24 00:03:44;;;;;;;;;;;19.20;99.90;;;;;;5056073;28;20039;-77
2022/09/24 00:06:13;;;;;;;;;;;19.10;99.90;;;;;;5051862;28;19924;-75
2022/09/24 00:08:40;;;;;;;;;;;19.00;99.90;;;;;;5051677;28;19924;-76
2022/09/24 00:11:10;;;;;;;;;;;18.90;99.90;;;;;;5058610;28;19921;-73
2022/09/24 00:13:38;;;;;;;;;;;18.90;99.90;;;;;;5054894;28;19912;-74
2022/09/24 00:16:07;;;;;;;;;;;18.80;99.90;;;;;;5053907;28;19927;-75
2022/09/24 00:18:33;;;;;;;;;;;18.70;99.90;;;;;;5060305;28;20384;-75
2022/09/24 00:21:00;;;;;;;;;;;18.70;99.90;;;;;;5052679;28;20353;-74
2022/09/24 00:23:26;;;;;;;;;;;18.70;99.90;;;;;;5061941;28;19942;-76
2022/09/24 00:28:38;;;;;;;;;;;18.90;99.90;;;;;;5053447;28;19966;-74
2022/09/24 00:31:07;;;;;;;;;;;19.00;99.90;;;;;;5052279;28;20054;-71
2022/09/24 00:33:34;;;;;;;;;;;19.10;99.90;;;;;;5065886;28;19934;-69
2022/09/24 00:36:03;;;;;;;;;;;19.20;99.90;;;;;;5066566;28;19916;-70
2022/09/24 00:38:30;;;;;;;;;;;19.20;99.90;;;;;;5052173;28;20391;-70
2022/09/24 00:40:57;;;;;;;;;;;19.30;99.90;;;;;;5052160;28;19912;-75
2022/09/24 00:43:34;;;;;;;;;;;19.50;99.90;;;;;;5052187;28;19913;-70
2022/09/24 00:46:21;;;;;;;;;;;19.70;99.90;;;;;;5069530;28;19991;-70
2022/09/24 00:48:48;;;;;;;;;;;19.80;99.90;;;;;;5065834;28;19913;-72
2022/09/24 00:51:16;;;;;;;;;;;19.80;99.90;;;;;;5070863;28;19963;-73
2022/09/24 00:53:44;;;;;;;;;;;19.80;99.90;;;;;;5073217;28;19908;-72
2022/09/24 00:56:14;;;;;;;;;;;19.80;99.90;;;;;;5073063;28;19916;-72
2022/09/24 00:58:42;;;;;;;;;;;19.80;99.90;;;;;;5064923;28;19920;-73
2022/09/24 01:01:10;;;;;;;;;;;19.80;99.90;;;;;;5053108;28;19913;-72
2022/09/24 01:03:41;;;;;;;;;;;19.90;99.90;;;;;;5053046;28;19921;-73
2022/09/24 01:06:08;;;;;;;;;;;19.90;99.90;;;;;;5052193;28;19925;-69
2022/09/24 01:08:35;;;;;;;;;;;20.00;99.90;;;;;;5052885;28;20006;-74
2022/09/24 01:11:01;;;;;;;;;;;20.10;99.90;;;;;;5052934;28;19952;-73
2022/09/24 01:13:28;;;;;;;;;;;20.20;99.90;;;;;;5052621;28;19913;-73
2022/09/24 01:15:59;;;;;;;;;;;20.20;99.90;;;;;;5055969;28;19919;-77
2022/09/24 01:18:42;;;;;;;;;;;20.20;99.90;;;;;;5072949;28;19999;-76
2022/09/24 01:21:22;;;;;;;;;;;20.30;99.90;;;;;;5066069;28;20331;-75
2022/09/24 01:23:51;;;;;;;;;;;20.40;99.90;;;;;;5063235;28;20368;-75
2022/09/24 01:26:44;;;;;;;;;;;20.60;99.90;;;;;;5052505;28;19944;-76
2022/09/24 01:29:23;;;;;;;;;;;20.60;99.90;;;;;;5052434;28;19912;-74
2022/09/24 01:32:00;;;;;;;;;;;20.90;99.90;;;;;;5052427;28;20428;-75
2022/09/24 01:34:33;;;;;;;;;;;21.20;99.90;;;;;;5064532;28;20356;-71
2022/09/24 01:37:02;;;;;;;;;;;21.40;99.50;;;;;;5052006;28;19913;-75
2022/09/24 01:39:29;;;;;;;;;;;21.40;99.10;;;;;;5058771;28;20294;-74
2022/09/24 01:41:56;;;;;;;;;;;21.40;98.30;;;;;;5050549;28;20003;-75
2022/09/24 01:44:23;;;;;;;;;;;21.60;98.30;;;;;;5051919;28;20400;-71
2022/09/24 01:46:50;;;;;;;;;;;21.70;98.00;;;;;;5054121;28;19932;-70
2022/09/24 01:49:16;;;;;;;;;;;21.60;97.90;;;;;;5052233;28;19920;-74
2022/09/24 01:51:48;;;;;;;;;;;21.40;98.20;;;;;;5067510;28;20450;-75
2022/09/24 01:54:20;;;;;;;;;;;21.40;97.90;;;;;;5051385;28;20281;-73
2022/09/24 01:56:57;;;;;;;;;;;21.30;98.00;;;;;;5052004;28;19913;-74
2022/09/24 01:59:32;;;;;;;;;;;21.10;98.30;;;;;;5052092;28;19909;-73
2022/09/24 02:02:05;;;;;;;;;;;20.80;99.00;;;;;;5051802;28;19992;-71
2022/09/24 02:04:36;;;;;;;;;;;20.70;99.30;;;;;;5051102;28;19920;-74
2022/09/24 02:07:04;;;;;;;;;;;20.50;99.90;;;;;;5051939;28;19913;-70
2022/09/24 02:09:39;;;;;;;;;;;20.30;99.90;;;;;;5061662;28;19939;-71
2022/09/24 02:12:09;;;;;;;;;;;20.10;99.90;;;;;;5070518;28;19966;-76
2022/09/24 02:14:39;;;;;;;;;;;19.90;99.90;;;;;;5071978;28;19962;-71
2022/09/24 02:17:06;;;;;;;;;;;19.70;99.90;;;;;;5070473;28;20392;-76
2022/09/24 02:19:35;;;;;;;;;;;19.40;99.90;;;;;;5053012;28;19920;-71
2022/09/24 02:22:03;;;;;;;;;;;19.40;99.90;;;;;;5049156;28;19925;-75
2022/09/24 02:24:33;;;;;;;;;;;19.40;99.90;;;;;;5052129;28;20012;-74
2022/09/24 02:27:00;;;;;;;;;;;19.30;99.90;;;;;;5053020;28;20007;-75
2022/09/24 02:29:26;;;;;;;;;;;19.20;99.90;;;;;;5051722;28;19918;-75
2022/09/24 02:31:55;;;;;;;;;;;19.10;99.90;;;;;;5052114;28;19909;-75
2022/09/24 02:34:27;;;;;;;;;;;19.00;99.90;;;;;;5053565;28;20369;-74
2022/09/24 02:36:53;;;;;;;;;;;19.00;99.90;;;;;;5050379;28;19913;-75
2022/09/24 02:39:20;;;;;;;;;;;18.90;99.90;;;;;;5051865;28;19936;-75
2022/09/24 02:41:48;;;;;;;;;;;18.80;99.90;;;;;;5058366;28;19921;-74
2022/09/24 02:44:18;;;;;;;;;;;18.80;99.90;;;;;;5069930;28;19909;-73
2022/09/24 02:46:46;;;;;;;;;;;18.70;99.90;;;;;;5066240;28;20006;-75
2022/09/24 02:49:13;;;;;;;;;;;18.80;99.90;;;;;;5069915;28;19917;-74
2022/09/24 02:51:40;;;;;;;;;;;18.70;99.90;;;;;;5052183;28;20311;-74
2022/09/24 02:54:07;;;;;;;;;;;18.80;99.90;;;;;;5066773;28;20388;-76
2022/09/24 02:56:34;;;;;;;;;;;18.90;99.90;;;;;;5070250;28;19924;-73
2022/09/24 02:59:01;;;;;;;;;;;18.80;99.90;;;;;;5071236;28;19958;-73
2022/09/24 03:01:28;;;;;;;;;;;18.80;99.90;;;;;;5055374;28;19983;-74
2022/09/24 03:03:55;;;;;;;;;;;18.70;99.90;;;;;;5059099;28;20384;-75
2022/09/24 03:06:23;;;;;;;;;;;18.70;99.90;;;;;;5060351;28;19962;-70
2022/09/24 03:08:53;;;;;;;;;;;18.60;99.90;;;;;;5068321;28;19962;-74
2022/09/24 03:11:21;;;;;;;;;;;18.50;99.90;;;;;;5050013;28;19966;-76
2022/09/24 03:13:48;;;;;;;;;;;18.50;99.90;;;;;;5063594;28;19996;-73
2022/09/24 03:16:15;;;;;;;;;;;18.50;99.90;;;;;;5050181;28;19908;-76
2022/09/24 03:18:42;;;;;;;;;;;18.40;99.90;;;;;;5042109;28;19917;-71
2022/09/24 03:21:12;;;;;;;;;;;18.30;99.90;;;;;;5057031;28;19995;-74
2022/09/24 03:23:40;;;;;;;;;;;18.40;99.90;;;;;;5071753;28;19912;-73
2022/09/24 03:26:06;;;;;;;;;;;18.40;99.90;;;;;;5066263;28;20475;-74
2022/09/24 03:28:34;;;;;;;;;;;18.30;99.90;;;;;;5072263;28;19916;-72
2022/09/24 03:31:01;;;;;;;;;;;18.30;99.90;;;;;;5069162;28;19999;-71
2022/09/24 03:33:32;;;;;;;;;;;18.30;99.90;;;;;;5068009;28;20319;-74
2022/09/24 03:36:00;;;;;;;;;;;18.40;99.90;;;;;;5059646;28;19962;-70
2022/09/24 03:38:28;;;;;;;;;;;18.40;99.90;;;;;;5054743;28;19956;-74
2022/09/24 03:40:55;;;;;;;;;;;18.40;99.90;;;;;;5058853;28;19913;-71
2022/09/24 03:43:22;;;;;;;;;;;18.50;99.90;;;;;;5057515;28;20015;-72
2022/09/24 03:45:49;;;;;;;;;;;18.70;99.90;;;;;;5071590;28;20369;-70
2022/09/24 03:48:16;;;;;;;;;;;18.70;99.90;;;;;;5054441;28;19909;-74
2022/09/24 03:50:43;;;;;;;;;;;18.70;99.90;;;;;;5059160;28;19920;-72
2022/09/24 03:53:10;;;;;;;;;;;18.60;99.90;;;;;;5074081;28;20420;-73
2022/09/24 03:55:41;;;;;;;;;;;18.50;99.90;;;;;;5071724;28;20373;-75
2022/09/24 03:58:08;;;;;;;;;;;18.50;99.90;;;;;;5054459;28;19913;-75
2022/09/24 04:00:34;;;;;;;;;;;18.30;99.90;;;;;;5057395;28;19912;-75
2022/09/24 04:03:01;;;;;;;;;;;18.30;99.90;;;;;;5072360;28;20013;-74
2022/09/24 04:05:29;;;;;;;;;;;18.20;99.90;;;;;;5073535;28;20015;-71
2022/09/24 04:07:56;;;;;;;;;;;18.10;99.90;;;;;;5074119;28;19908;-70
2022/09/24 04:10:25;;;;;;;;;;;18.10;99.90;;;;;;5063252;28;19920;-70
2022/09/24 04:12:52;;;;;;;;;;;18.10;99.90;;;;;;5053892;28;20380;-73
2022/09/24 04:15:20;;;;;;;;;;;18.00;99.90;;;;;;5054190;28;19913;-72
2022/09/24 04:17:54;;;;;;;;;;;17.90;99.90;;;;;;5053557;28;19913;-72
2022/09/24 04:20:22;;;;;;;;;;;17.90;99.90;;;;;;5057008;28;19913;-72
2022/09/24 04:22:52;;;;;;;;;;;17.90;99.90;;;;;;5051676;28;20064;-73
2022/09/24 04:25:19;;;;;;;;;;;17.80;99.90;;;;;;5036260;28;20289;-71
2022/09/24 04:27:46;;;;;;;;;;;17.80;99.90;;;;;;5053987;28;19919;-73
2022/09/24 04:30:13;;;;;;;;;;;18.00;99.90;;;;;;5065730;28;19912;-72
2022/09/24 04:32:40;;;;;;;;;;;18.20;99.90;;;;;;5056812;28;19999;-69
2022/09/24 04:35:08;;;;;;;;;;;18.30;99.90;;;;;;5073700;28;19935;-72
2022/09/24 04:37:35;;;;;;;;;;;18.30;99.90;;;;;;5060588;28;19912;-72
2022/09/24 04:40:03;;;;;;;;;;;18.40;99.90;;;;;;5056400;28;20330;-74
2022/09/24 04:42:30;;;;;;;;;;;18.40;99.90;;;;;;5052852;28;19920;-70
2022/09/24 04:44:56;;;;;;;;;;;18.40;99.90;;;;;;5062143;28;19917;-73
2022/09/24 04:47:24;;;;;;;;;;;18.50;99.90;;;;;;5071386;28;19919;-77
2022/09/24 04:49:51;;;;;;;;;;;18.50;99.90;;;;;;5072236;28;19916;-73
2022/09/24 04:52:18;;;;;;;;;;;18.70;99.90;;;;;;5070845;28;19912;-70
2022/09/24 04:54:46;;;;;;;;;;;18.70;99.90;;;;;;5063894;28;20452;-72
2022/09/24 04:57:14;;;;;;;;;;;18.90;99.90;;;;;;5053789;28;19920;-69
2022/09/24 04:59:42;;;;;;;;;;;19.10;99.90;;;;;;5062368;28;19944;-70
2022/09/24 05:02:08;;;;;;;;;;;19.50;99.90;;;;;;5067921;28;20011;-70
2022/09/24 05:04:49;;;;;;;;;;;20.10;99.90;;;;;;5085500;23;19931;-75
2022/09/24 05:07:18;;;;;;;;;;;20.70;99.90;;;;;;5039819;28;19913;-82
2022/09/24 05:10:00;;;;;;;;;;;21.40;99.90;;;;;;5060435;28;20442;-80
2022/09/24 05:12:27;;;;;;;;;;;22.00;98.60;;;;;;5051018;28;19923;-80
2022/09/24 05:15:15;;;;;;;;;;;22.60;97.90;;;;;;5063174;28;19916;-82
2022/09/24 05:18:15;;;;;;;;;;;22.80;96.50;;;;;;5071769;28;19927;-77
2022/09/24 05:23:42;;;;;;;;;;;21.80;96.30;;;;;;5031718;28;19928;-82
2022/09/24 05:29:08;;;;;;;;;;;20.60;98.20;;;;;;5053035;28;19916;-77
2022/09/24 05:32:16;;;;;;;;;;;20.40;98.50;;;;;;5046362;28;20279;-81
2022/09/24 05:34:43;;;;;;;;;;;20.00;98.80;;;;;;4955989;28;19921;-77
2022/09/24 05:37:13;;;;;;;;;;;20.10;99.40;;;;;;5041639;28;19913;-82
2022/09/24 05:39:40;;;;;;;;;;;20.10;99.20;;;;;;5043079;28;20382;-83
2022/09/24 05:42:12;;;;;;;;;;;20.00;99.10;;;;;;5035566;28;19924;-79
2022/09/24 05:51:16;;;;;;;;;;;19.30;99.90;;;;;;5027829;28;19967;-82
2022/09/24 05:53:51;;;;;;;;;;;19.00;99.90;;;;;;5032475;28;20003;-83
2022/09/24 05:56:30;;;;;;;;;;;18.60;99.90;;;;;;5048095;28;20372;-82
2022/09/24 05:58:59;;;;;;;;;;;18.70;99.90;;;;;;5033753;28;19932;-77
2022/09/24 06:01:29;;;;;;;;;;;18.50;99.90;;;;;;5031725;28;20025;-81
2022/09/24 06:03:56;;;;;;;;;;;18.40;99.90;;;;;;5045840;28;19924;-82
2022/09/24 06:06:26;;;;;;;;;;;18.50;99.90;;;;;;5048633;28;19920;-81
2022/09/24 06:09:10;;;;;;;;;;;18.70;99.90;;;;;;5052310;28;19909;-76
2022/09/24 06:11:41;;;;;;;;;;;18.80;99.90;;;;;;5011532;28;19913;-78
2022/09/24 06:14:11;;;;;;;;;;;18.90;99.90;;;;;;5030945;28;19909;-77
2022/09/24 06:16:38;;;;;;;;;;;19.20;99.90;;;;;;5011974;28;19917;-80
2022/09/24 06:19:09;;;;;;;;;;;19.90;99.90;;;;;;5026026;28;19913;-79
2022/09/24 06:21:35;;;;;;;;;;;20.30;99.90;;;;;;5012682;28;20353;-78
2022/09/24 06:24:02;;;;;;;;;;;21.10;99.90;;;;;;5028805;28;19913;-81
2022/09/24 06:26:29;;;;;;;;;;;21.90;99.90;;;;;;5030612;28;19960;-81
2022/09/24 06:29:19;;;;;;;;;;;22.80;99.80;;;;;;5029424;28;19913;-77
2022/09/24 06:31:55;;;;;;;;;;;23.60;98.30;;;;;;5030741;28;19944;-79
2022/09/24 06:34:27;;;;;;;;;;;24.40;96.80;;;;;;5018607;28;20053;-78
2022/09/24 06:36:54;;;;;;;;;;;25.00;95.90;;;;;;5026352;28;19921;-77
2022/09/24 06:39:43;;;;;;;;;;;25.00;94.80;;;;;;5034051;28;19924;-82
2022/09/24 06:42:11;;;;;;;;;;;24.80;94.50;;;;;;5028596;28;19920;-76
2022/09/24 06:44:41;;;;;;;;;;;24.10;94.40;;;;;;5032598;28;19920;-82
2022/09/24 06:47:29;;;;;;;;;;;23.40;95.10;;;;;;5032304;28;19912;-79
2022/09/24 06:50:16;;;;;;;;;;;22.60;96.80;;;;;;5040733;28;19962;-81
2022/09/24 06:52:52;;;;;;;;;;;21.80;97.80;;;;;;5037276;28;19913;-82
2022/09/24 06:56:05;;;;;;;;;;;;;;;;;;;;;
2022/09/24 07:01:15;;;;;;;;;;;20.00;99.90;;;;;;5045631;28;19967;-71
2022/09/24 07:03:42;;;;;;;;;;;19.60;99.90;;;;;;5033195;28;19913;-75
2022/09/24 07:06:09;;;;;;;;;;;19.40;99.90;;;;;;5036791;28;20007;-72
2022/09/24 07:08:42;;;;;;;;;;;19.10;99.90;;;;;;5027736;28;19917;-79
2022/09/24 07:11:27;;;;;;;;;;;18.90;99.90;;;;;;5015284;28;19940;-79
2022/09/24 07:13:54;;;;;;;;;;;18.80;99.90;;;;;;5028392;28;19996;-75
2022/09/24 07:16:21;;;;;;;;;;;18.50;99.90;;;;;;5033962;28;19924;-72
2022/09/24 07:18:50;;;;;;;;;;;18.30;99.90;;;;;;5021900;28;19910;-75
2022/09/24 07:24:49;;;;;;;;;;;17.70;99.90;;;;;;5019787;28;19975;-78
2022/09/24 07:27:26;;;;;;;;;;;;;;;;;;;;;
2022/09/24 07:29:56;;;;;;;;;;;17.40;99.90;;;;;;5011207;28;19916;-78
2022/09/24 07:32:23;;;;;;;;;;;17.20;99.90;;;;;;5034647;28;19940;-70
2022/09/24 07:34:49;;;;;;;;;;;17.30;99.90;;;;;;5033551;28;20367;-78
2022/09/24 07:37:26;;;;;;;;;;;;;;;;;;;;;
2022/09/24 07:39:59;;;;;;;;;;;17.20;99.90;;;;;;5002864;28;19914;-79
2022/09/24 07:42:29;;;;;;;;;;;17.20;99.90;;;;;;5008610;28;19928;-78
2022/09/24 07:44:56;;;;;;;;;;;17.00;99.90;;;;;;5038723;28;19909;-77
2022/09/24 07:47:29;;;;;;;;;;;17.10;99.90;;;;;;5015309;28;19983;-78
2022/09/24 07:50:05;;;;;;;;;;;17.10;99.90;;;;;;5033665;28;19916;-77
2022/09/24 07:52:41;;;;;;;;;;;17.10;99.90;;;;;;5034338;28;19914;-78
2022/09/24 07:58:14;;;;;;;;;;;17.00;99.90;;;;;;5012087;28;20281;-77
2022/09/24 08:00:50;;;;;;;;;;;16.90;99.90;;;;;;5011560;28;19913;-76
2022/09/24 08:03:23;;;;;;;;;;;16.80;99.90;;;;;;5000302;28;19922;-78
2022/09/24 08:05:50;;;;;;;;;;;16.80;99.90;;;;;;5006494;28;19909;-78
2022/09/24 08:08:32;;;;;;;;;;;16.70;99.90;;;;;;5032358;28;19913;-75
2022/09/24 08:11:06;;;;;;;;;;;16.70;99.90;;;;;;5033428;28;20354;-77
2022/09/24 08:17:01;;;;;;;;;;;;;;;;;;;;;
2022/09/24 08:19:32;;;;;;;;;;;16.70;99.90;;;;;;5033933;28;20272;-78
2022/09/24 08:25:30;;;;;;;;;;;16.50;99.90;;;;;;5006070;28;19976;-78
2022/09/24 08:28:35;;;;;;;;;;;16.50;99.90;;;;;;5003530;28;19910;-76
2022/09/24 08:31:07;;;;;;;;;;;16.50;99.90;;;;;;4964138;28;19914;-77
2022/09/24 08:33:54;;;;;;;;;;;16.40;99.90;;;;;;4995224;28;19956;-77
2022/09/24 08:36:43;;;;;;;;;;;16.50;99.90;;;;;;5011882;28;19916;-76
2022/09/24 08:39:16;;;;;;;;;;;16.50;99.90;;;;;;4974573;28;19913;-77
2022/09/24 08:42:07;;;;;;;;;;;16.40;99.90;;;;;;5013557;28;20302;-77
2022/09/24 08:47:47;;;;;;;;;;;16.50;99.90;;;;;;5012979;28;19956;-76
2022/09/24 08:50:26;;;;;;;;;;;;;;;;;;;;;
2022/09/24 08:52:56;;;;;;;;;;;16.50;99.90;;;;;;5008923;28;19962;-78
2022/09/24 08:55:42;;;;;;;;;;;16.50;99.90;;;;;;5008506;28;19910;-78
2022/09/24 08:58:22;;;;;;;;;;;16.40;99.90;;;;;;5011000;28;20397;-78
2022/09/24 09:00:51;;;;;;;;;;;16.40;99.90;;;;;;5013135;28;20297;-79
2022/09/24 09:03:44;;;;;;;;;;;16.40;99.90;;;;;;5012568;28;19961;-77
2022/09/24 09:06:20;;;;;;;;;;;16.30;99.90;;;;;;5009866;28;19914;-79
2022/09/24 09:08:52;;;;;;;;;;;16.30;99.90;;;;;;5012101;28;19909;-78
2022/09/24 09:11:21;;;;;;;;;;;16.30;99.90;;;;;;5013146;28;19917;-78
2022/09/24 09:14:02;;;;;;;;;;;16.30;99.90;;;;;;5013046;28;19932;-77
2022/09/24 09:16:36;;;;;;;;;;;16.30;99.90;;;;;;5010858;28;19975;-78
2022/09/24 09:22:49;;;;;;;;;;;16.10;99.90;;;;;;5028254;28;19931;-77
2022/09/24 09:37:27;;;;;;;;;;;16.00;99.90;;;;;;4985266;28;19921;-77
2022/09/24 09:40:43;;;;;;;;;;;16.00;99.90;;;;;;5024646;28;20493;-78
2022/09/24 09:43:13;;;;;;;;;;;15.90;99.90;;;;;;5018640;28;20353;-76
2022/09/24 09:49:07;;;;;;;;;;;15.90;99.90;;;;;;4994888;28;19934;-82
2022/09/24 09:51:47;;;;;;;;;;;15.80;99.90;;;;;;4988113;28;19914;-78
2022/09/24 09:54:14;;;;;;;;;;;15.80;99.90;;;;;;5003465;28;19960;-76
2022/09/24 09:57:12;;;;;;;;;;;15.80;99.90;;;;;;5009800;28;19968;-74
2022/09/24 10:00:02;;;;;;;;;;;15.80;99.90;;;;;;4990933;28;19919;-76
2022/09/24 10:02:33;;;;;;;;;;;15.70;99.90;;;;;;5580234;23;20016;-76
2022/09/24 10:08:34;;;;;;;;;;;;;;;;;;;;;
2022/09/24 10:11:33;;;;;;;;;;;15.60;99.90;;;;;;5007408;28;19908;-75
2022/09/24 10:20:32;;;;;;;;;;;15.50;99.90;;;;;;4972681;28;19910;-77
2022/09/24 10:23:07;;;;;;;;;;;15.50;99.90;;;;;;4966400;28;20069;-77
2022/09/24 10:25:47;;;;;;;;;;;15.40;99.90;;;;;;4968146;28;19988;-75
2022/09/24 10:31:27;;;;;;;;;;;15.30;99.90;;;;;;4988692;28;19937;-78
2022/09/24 10:37:44;;;;;;;;;;;;;;;;;;;;;
2022/09/24 10:40:22;;;;;;;;;;;15.30;99.90;;;;;;4970006;28;20415;-76
2022/09/24 10:43:24;;;;;;;;;;;15.20;99.90;;;;;;4978454;28;20366;-76
2022/09/24 10:46:20;;;;;;;;;;;15.20;99.90;;;;;;4948321;29;20045;-75
2022/09/24 10:52:06;;;;;;;;;;;15.10;99.90;;;;;;4955057;28;19914;-77
2022/09/24 10:55:15;;;;;;;;;;;15.10;99.90;;;;;;4957508;28;19953;-77
2022/09/24 10:58:05;;;;;;;;;;;15.20;99.90;;;;;;4979689;28;19914;-74
2022/09/24 11:00:52;;;;;;;;;;;15.10;99.90;;;;;;4988936;28;20365;-78
2022/09/24 11:06:59;;;;;;;;;;;14.70;99.90;;;;;;4996927;28;19913;-77
2022/09/24 11:13:21;;;;;;;;;;;15.50;99.90;;;;;;5039512;28;19909;-76
2022/09/24 11:16:00;;;;;;;;;;;15.10;99.90;;;;;;5007570;28;19997;-75
2022/09/24 11:21:50;;;;;;;;;;;15.10;99.90;;;;;;4987888;28;19914;-78
2022/09/24 11:24:23;;;;;;;;;;;15.00;99.90;;;;;;4987628;28;20324;-78
2022/09/24 11:26:53;;;;;;;;;;;15.10;99.90;;;;;;4988971;28;19917;-78
2022/09/24 11:29:30;;;;;;;;;;;15.00;99.90;;;;;;4986533;28;19909;-77
2022/09/24 11:41:25;;;;;;;;;;;14.80;99.90;;;;;;5001782;28;20098;-76
2022/09/24 11:44:16;;;;;;;;;;;14.80;99.90;;;;;;4991984;28;20043;-75
2022/09/24 11:49:56;;;;;;;;;;;14.80;99.90;;;;;;4991187;28;20409;-78
2022/09/24 11:52:42;;;;;;;;;;;14.80;99.90;;;;;;4990335;28;19921;-76
2022/09/24 11:55:34;;;;;;;;;;;14.80;99.90;;;;;;4991852;28;20327;-76
2022/09/24 11:58:00;;;;;;;;;;;14.70;99.90;;;;;;4991372;28;19917;-77
2022/09/24 12:01:05;;;;;;;;;;;14.70;99.90;;;;;;4991745;28;20316;-78
2022/09/24 12:10:24;;;;;;;;;;;14.50;99.90;;;;;;5046888;28;20277;-78
2022/09/24 12:13:18;;;;;;;;;;;14.50;99.90;;;;;;5011883;28;19909;-77
2022/09/24 12:21:53;;;;;;;;;;;14.40;99.90;;;;;;5249574;23;19924;-75
2022/09/24 12:24:42;;;;;;;;;;;14.40;99.90;;;;;;5055845;28;20269;-77
2022/09/24 12:27:38;;;;;;;;;;;14.40;99.90;;;;;;5056262;28;19908;-75
2022/09/24 12:33:07;;;;;;;;;;;14.40;99.90;;;;;;5034401;28;19920;-75
2022/09/24 12:35:48;;;;;;;;;;;14.40;99.90;;;;;;5034177;28;19913;-77
2022/09/24 12:42:03;;;;;;;;;;;;;;;;;;;;;
2022/09/24 12:45:02;;;;;;;;;;;14.50;99.90;;;;;;5018871;28;19913;-77
2022/09/24 12:50:54;;;;;;;;;;;14.50;99.90;;;;;;5018732;28;19913;-77
2022/09/24 12:57:04;;;;;;;;;;;14.50;99.90;;;;;;5026210;28;19917;-77
2022/09/24 12:59:41;;;;;;;;;;;;;;;;;;;;;
2022/09/24 13:05:03;;;;;;;;;;;14.60;99.90;;;;;;5025579;23;20313;-78
2022/09/24 13:07:34;;;;;;;;;;;14.60;99.90;;;;;;4982687;28;19996;-77
2022/09/24 13:10:16;;;;;;;;;;;14.50;99.90;;;;;;4991129;28;19963;-78
2022/09/24 13:12:44;;;;;;;;;;;14.50;99.90;;;;;;4971158;28;19910;-79
2022/09/24 13:15:32;;;;;;;;;;;14.50;99.90;;;;;;4973723;28;19917;-77
2022/09/24 13:18:10;;;;;;;;;;;14.50;99.90;;;;;;4972474;28;19956;-75
2022/09/24 13:20:40;;;;;;;;;;;14.50;99.90;;;;;;4971812;28;19910;-78
2022/09/24 13:23:13;;;;;;;;;;;14.50;99.90;;;;;;4972214;28;20378;-79
2022/09/24 13:25:40;;;;;;;;;;;14.50;99.90;;;;;;4962477;28;19961;-77
2022/09/24 13:28:19;;;;;;;;;;;14.60;99.90;;;;;;4984361;28;19958;-76
2022/09/24 13:30:49;;;;;;;;;;;14.60;99.90;;;;;;4970951;28;20277;-75
2022/09/24 13:33:22;;;;;;;;;;;14.60;99.90;;;;;;4971257;28;19964;-76
2022/09/24 13:36:01;;;;;;;;;;;14.70;99.90;;;;;;4971495;28;19910;-73
2022/09/24 13:38:30;;;;;;;;;;;14.60;99.90;;;;;;4971305;28;20290;-75
2022/09/24 13:41:00;;;;;;;;;;;14.70;99.90;;;;;;4971552;28;20382;-75
2022/09/24 13:43:44;;;;;;;;;;;14.60;99.90;;;;;;4971938;28;19926;-74
2022/09/24 13:46:14;;;;;;;;;;;14.60;99.90;;;;;;4971317;28;20385;-77
2022/09/24 13:48:51;;;;;;;;;;;14.60;99.90;;;;;;4972609;28;19970;-72
2022/09/24 13:51:21;;;;;;;;;;;14.60;99.90;;;;;;4971732;28;19918;-75
2022/09/24 13:53:51;;;;;;;;;;;14.60;99.90;;;;;;4969785;28;19917;-72
2022/09/24 13:56:18;;;;;;;;;;;14.50;99.90;;;;;;4970991;28;20004;-75
2022/09/24 13:58:46;;;;;;;;;;;14.50;99.90;;;;;;4969468;28;19910;-79
2022/09/24 14:01:20;;;;;;;;;;;14.50;99.90;;;;;;4970775;28;19910;-71
2022/09/24 14:04:13;;;;;;;;;;;14.50;99.90;;;;;;4970534;28;19922;-72
2022/09/24 14:06:42;;;;;;;;;;;14.50;99.90;;;;;;4973007;28;20000;-73
2022/09/24 14:09:35;;;;;;;;;;;14.40;99.90;;;;;;4970958;28;19921;-76
2022/09/24 14:12:14;;;;;;;;;;;14.40;99.90;;;;;;4971808;28;19910;-71
2022/09/24 14:14:46;;;;;;;;;;;14.50;99.90;;;;;;4970295;28;19917;-71
2022/09/24 14:17:15;;;;;;;;;;;14.50;99.90;;;;;;4970399;28;19963;-71
2022/09/24 14:19:42;;;;;;;;;;;14.50;99.90;;;;;;4970455;28;19910;-72
2022/09/24 14:22:15;;;;;;;;;;;14.50;99.90;;;;;;4970210;28;20476;-70
2022/09/24 14:24:44;;;;;;;;;;;14.50;99.90;;;;;;4970346;28;20434;-77
2022/09/24 14:27:16;;;;;;;;;;;14.50;99.90;;;;;;4970772;28;19910;-78
2022/09/24 14:29:44;;;;;;;;;;;14.50;99.90;;;;;;4970013;28;19910;-71
2022/09/24 14:32:26;;;;;;;;;;;14.50;99.90;;;;;;4970260;28;20297;-72
2022/09/24 14:34:55;;;;;;;;;;;14.40;99.90;;;;;;4970500;28;19952;-72
2022/09/24 14:37:24;;;;;;;;;;;14.40;99.90;;;;;;4970279;28;19910;-73
2022/09/24 14:39:56;;;;;;;;;;;14.40;99.90;;;;;;4970235;28;19963;-72
2022/09/24 14:42:37;;;;;;;;;;;14.40;99.90;;;;;;4969789;28;19918;-75
2022/09/24 14:45:08;;;;;;;;;;;14.40;99.90;;;;;;4969730;28;20381;-69
2022/09/24 14:47:38;;;;;;;;;;;14.60;99.90;;;;;;4969946;28;19910;-68
2022/09/24 14:50:24;;;;;;;;;;;14.60;99.90;;;;;;4969796;28;19914;-68
2022/09/24 14:52:55;;;;;;;;;;;14.60;99.90;;;;;;4969881;28;19910;-70
2022/09/24 14:55:34;;;;;;;;;;;14.60;99.90;;;;;;4969719;28;19910;-68
2022/09/24 14:58:01;;;;;;;;;;;14.60;99.90;;;;;;4969897;28;20062;-70
2022/09/24 15:00:32;;;;;;;;;;;14.60;99.90;;;;;;4969689;28;19961;-71
2022/09/24 15:03:04;;;;;;;;;;;14.50;99.90;;;;;;4969384;28;19926;-70
2022/09/24 15:05:31;;;;;;;;;;;14.40;99.90;;;;;;4968200;28;19910;-70
2022/09/24 15:08:10;;;;;;;;;;;14.40;99.90;;;;;;4968304;28;20297;-69
2022/09/24 15:10:38;;;;;;;;;;;14.40;99.90;;;;;;4969648;28;19910;-70
2022/09/24 15:13:12;;;;;;;;;;;14.30;99.90;;;;;;4972104;28;19910;-71
2022/09/24 15:15:39;;;;;;;;;;;14.30;99.90;;;;;;4971533;28;20375;-70
2022/09/24 15:18:09;;;;;;;;;;;14.30;99.90;;;;;;4973142;28;19910;-71
2022/09/24 15:20:36;;;;;;;;;;;14.30;99.90;;;;;;4972289;28;19911;-70
2022/09/24 15:23:02;;;;;;;;;;;14.20;99.90;;;;;;4973137;28;19923;-72
2022/09/24 15:25:29;;;;;;;;;;;14.30;99.90;;;;;;4973136;28;19910;-68
2022/09/24 15:27:56;;;;;;;;;;;14.20;99.90;;;;;;4971152;28;19914;-68
2022/09/24 15:30:23;;;;;;;;;;;14.20;99.90;;;;;;4971872;28;20328;-68
2022/09/24 15:32:50;;;;;;;;;;;14.10;99.90;;;;;;4973005;28;20363;-70
2022/09/24 15:35:16;;;;;;;;;;;14.20;99.90;;;;;;4972939;28;19964;-72
2022/09/24 15:37:43;;;;;;;;;;;14.10;99.90;;;;;;4972837;28;19917;-71
2022/09/24 15:40:13;;;;;;;;;;;14.10;99.90;;;;;;4973120;28;19910;-72
2022/09/24 15:42:40;;;;;;;;;;;14.10;99.90;;;;;;4972697;28;19922;-72
2022/09/24 15:45:09;;;;;;;;;;;14.00;99.90;;;;;;4972511;28;19932;-71
2022/09/24 15:47:36;;;;;;;;;;;14.00;99.90;;;;;;4972777;28;19917;-72
2022/09/24 15:50:03;;;;;;;;;;;14.00;99.90;;;;;;4972492;28;19910;-70
2022/09/24 15:52:31;;;;;;;;;;;13.90;99.90;;;;;;4971100;28;20324;-70
2022/09/24 15:55:00;;;;;;;;;;;13.90;99.90;;;;;;4972424;28;20370;-71
2022/09/24 15:57:29;;;;;;;;;;;13.90;99.90;;;;;;4972644;28;19910;-71
2022/09/24 15:59:56;;;;;;;;;;;13.80;99.90;;;;;;4972468;28;20286;-71
2022/09/24 16:02:26;;;;;;;;;;;13.80;99.90;;;;;;4972124;28;20381;-71
2022/09/24 16:04:52;;;;;;;;;;;13.80;99.90;;;;;;4972291;28;19922;-73
2022/09/24 16:07:19;;;;;;;;;;;13.70;99.90;;;;;;4972224;28;19918;-72
2022/09/24 16:09:45;;;;;;;;;;;13.60;99.90;;;;;;4972473;28;19910;-72
2022/09/24 16:12:16;;;;;;;;;;;13.60;99.90;;;;;;4972618;28;19993;-71
2022/09/24 16:14:42;;;;;;;;;;;13.60;99.90;;;;;;4972465;28;19910;-73
2022/09/24 16:17:09;;;;;;;;;;;13.60;99.90;;;;;;4972178;28;19911;-72
2022/09/24 16:19:36;;;;;;;;;;;13.60;99.90;;;;;;4972069;28;19917;-72
2022/09/24 16:22:03;;;;;;;;;;;13.50;99.90;;;;;;4971959;28;19918;-72
2022/09/24 16:24:33;;;;;;;;;;;13.40;99.90;;;;;;4971337;28;20012;-72
2022/09/24 16:27:00;;;;;;;;;;;13.50;99.90;;;;;;4971944;28;19910;-72
2022/09/24 16:29:27;;;;;;;;;;;13.50;99.90;;;;;;4972107;28;19984;-75
2022/09/24 16:31:53;;;;;;;;;;;13.40;99.90;;;;;;4970698;28;19910;-73
2022/09/24 16:34:20;;;;;;;;;;;13.40;99.90;;;;;;4971736;28;19910;-72
2022/09/24 16:36:47;;;;;;;;;;;13.40;99.90;;;;;;4971849;28;19953;-73
2022/09/24 16:39:14;;;;;;;;;;;13.40;99.90;;;;;;4971915;28;19918;-72
2022/09/24 16:41:41;;;;;;;;;;;13.30;99.90;;;;;;4971263;28;19914;-71
2022/09/24 16:44:13;;;;;;;;;;;13.20;99.90;;;;;;4971647;28;19910;-72
2022/09/24 16:46:41;;;;;;;;;;;13.30;99.90;;;;;;4971521;28;20423;-73
2022/09/24 16:49:07;;;;;;;;;;;13.30;99.90;;;;;;4972018;28;19950;-74
2022/09/24 16:51:34;;;;;;;;;;;13.20;99.90;;;;;;4971904;28;20011;-73
2022/09/24 16:54:01;;;;;;;;;;;13.20;99.90;;;;;;4971765;28;20033;-73
2022/09/24 16:56:27;;;;;;;;;;;13.20;99.90;;;;;;4971707;28;19914;-72
2022/09/24 16:58:55;;;;;;;;;;;13.20;99.90;;;;;;4971571;28;19910;-73
2022/09/24 17:01:22;;;;;;;;;;;13.10;99.90;;;;;;4971678;28;19918;-73
2022/09/24 17:03:56;;;;;;;;;;;13.00;99.90;;;;;;4971509;28;19928;-72